Time;durP1;ratioP1;P1;durP2;ratioP2;P2;SDS_P1;SDS_P2;PMS_P1;PMS_P2;Temp;Humidity;BMP_temperature;BMP_pressure;BME280_temperature;BME280_humidity;BME280_pressure;Samples;Min_cycle;Max_cycle;Signal;HPM_P1;HPM_P2
2021/06/07 00:01:29;;;;;;;11.97;8.30;;;;;;;10.96;80.24;98407.16;1736276;82;21379;-76
2021/06/07 00:03:55;;;;;;;14.00;8.90;;;;;;;10.95;80.41;98413.13;1736041;82;20915;-76
2021/06/07 00:06:21;;;;;;;14.53;9.10;;;;;;;10.91;80.56;98397.66;1736122;82;21006;-76
2021/06/07 00:08:47;;;;;;;14.25;8.60;;;;;;;10.84;80.22;98401.19;1736223;82;20995;-76
2021/06/07 00:11:13;;;;;;;12.40;10.13;;;;;;;10.84;80.22;98401.19;1736065;82;20946;-76
2021/06/07 00:13:41;;;;;;;13.30;9.50;;;;;;;10.77;81.40;98409.62;1736272;82;21014;-76
2021/06/07 00:16:07;;;;;;;12.90;8.95;;;;;;;10.77;81.40;98409.62;1736031;82;21459;-76
2021/06/07 00:18:33;;;;;;;14.75;9.28;;;;;;;10.74;79.93;98415.56;1736188;82;20935;-76
2021/06/07 00:21:10;;;;;;;21.20;8.90;;;;;;;10.65;82.27;98417.19;1735989;82;21125;-76
2021/06/07 00:23:36;;;;;;;10.15;8.68;;;;;;;10.71;81.36;98421.53;1736519;81;21305;-77
2021/06/07 00:26:03;;;;;;;11.40;8.53;;;;;;;10.71;81.36;98421.53;1736128;82;21336;-77
2021/06/07 00:28:30;;;;;;;11.40;8.15;;;;;;;10.73;82.67;98411.23;1736074;82;20938;-77
2021/06/07 00:30:56;;;;;;;10.23;8.55;;;;;;;10.81;82.51;98413.94;1736259;82;20903;-77
2021/06/07 00:33:22;;;;;;;12.50;8.05;;;;;;;10.77;81.53;98408.78;1736225;82;21143;-77
2021/06/07 00:35:48;;;;;;;11.78;8.10;;;;;;;10.71;81.12;98420.99;1736072;82;20891;-77
2021/06/07 00:38:14;;;;;;;10.65;7.53;;;;;;;10.70;80.48;98416.66;1736246;82;20953;-77
2021/06/07 00:40:40;;;;;;;9.25;7.62;;;;;;;10.65;80.68;98417.19;1736198;82;20903;-77
2021/06/07 00:43:06;;;;;;;13.40;8.43;;;;;;;10.54;81.78;98415.02;1736051;81;20974;-77
2021/06/07 00:45:33;;;;;;;11.45;8.68;;;;;;;10.48;81.81;98416.63;1736074;82;21131;-77
2021/06/07 00:48:02;;;;;;;11.18;8.55;;;;;;;10.43;81.75;98411.49;1736123;82;21439;-77
2021/06/07 00:50:33;;;;;;;12.20;9.33;;;;;;;10.48;80.09;98412.56;1736456;82;20958;-77
2021/06/07 00:53:07;;;;;;;11.20;8.38;;;;;;;10.43;80.38;98407.43;1736334;82;21022;-77
2021/06/07 00:55:48;;;;;;;10.05;7.83;;;;;;;10.41;80.99;98410.11;1743378;81;20950;-76
2021/06/07 00:58:19;;;;;;;13.88;7.45;;;;;;;10.36;81.72;98404.70;1744250;82;21311;-77
2021/06/07 01:00:46;;;;;;;9.53;7.67;;;;;;;10.32;83.58;98404.41;1744315;82;20891;-76
2021/06/07 01:03:12;;;;;;;13.68;8.25;;;;;;;10.42;81.85;98407.16;1744422;82;20974;-76
2021/06/07 01:05:38;;;;;;;9.80;7.30;;;;;;;10.49;82.65;98412.29;1691758;82;20970;-76
2021/06/07 01:08:04;;;;;;;12.25;8.65;;;;;;;10.46;83.27;98407.42;1744497;82;21021;-76
2021/06/07 01:10:31;;;;;;;11.60;7.10;;;;;;;10.48;83.69;98407.15;1715514;82;21368;-76
2021/06/07 01:12:59;;;;;;;11.43;8.38;;;;;;;10.48;83.69;98407.15;1745072;82;21009;-76
2021/06/07 01:15:25;;;;;;;9.90;7.53;;;;;;;10.58;81.22;98410.67;1744789;82;21370;-76
2021/06/07 01:17:51;;;;;;;10.80;7.30;;;;;;;10.51;81.36;98410.15;1744886;82;21331;-76
2021/06/07 01:20:18;;;;;;;12.88;7.70;;;;;;;10.42;82.81;98409.03;1744592;82;20946;-76
2021/06/07 01:22:44;;;;;;;9.03;7.50;;;;;;;10.35;82.11;98409.31;1744458;82;21007;-76
2021/06/07 01:25:33;;;;;;;14.23;8.18;;;;;;;10.25;81.63;98410.63;1744514;82;20911;-76
2021/06/07 01:27:59;;;;;;;12.13;8.38;;;;;;;10.17;81.95;98403.83;1744636;82;20974;-76
2021/06/07 01:30:28;;;;;;;12.23;8.00;;;;;;;10.12;81.79;98399.75;1744553;82;21386;-76
2021/06/07 01:32:54;;;;;;;;;;;;;;;10.07;83.22;98397.02;1747148;82;20930;-77
2021/06/07 01:35:20;;;;;;;10.32;7.37;;;;;;;10.06;83.01;98401.34;1744651;81;21043;-77
2021/06/07 01:37:47;;;;;;;10.82;8.18;;;;;;;10.04;81.38;98396.75;1744492;81;21105;-77
2021/06/07 01:40:18;;;;;;;10.72;7.33;;;;;;;10.02;83.28;98398.91;1744470;82;21363;-77
2021/06/07 01:42:44;;;;;;;7.90;7.10;;;;;;;10.02;82.79;98397.56;1744467;82;21259;-77
2021/06/07 01:45:12;;;;;;;9.68;7.55;;;;;;;10.00;83.60;98397.83;1744308;82;21509;-77
2021/06/07 01:47:38;;;;;;;12.95;7.83;;;;;;;10.00;82.05;98403.25;1744483;82;21020;-77
2021/06/07 01:50:06;;;;;;;10.85;8.25;;;;;;;9.96;82.32;98402.67;1715313;82;21032;-77
2021/06/07 01:52:33;;;;;;;10.13;7.90;;;;;;;9.93;83.59;98400.52;1744701;81;21406;-77
2021/06/07 01:55:00;;;;;;;10.80;9.13;;;;;;;9.97;81.63;98394.28;1747785;81;21017;-77
2021/06/07 01:57:27;;;;;;;10.25;7.83;;;;;;;9.98;82.21;98392.39;1750736;82;21016;-77
2021/06/07 01:59:53;;;;;;;10.80;7.90;;;;;;;10.00;82.28;98390.22;1750416;81;21290;-77
2021/06/07 02:02:19;;;;;;;10.10;7.10;;;;;;;9.94;84.53;98396.72;1750512;82;21016;-77
2021/06/07 02:04:45;;;;;;;11.45;8.20;;;;;;;9.97;84.07;98400.24;1750186;82;21509;-77
2021/06/07 02:07:11;;;;;;;11.65;7.62;;;;;;;10.01;83.55;98401.35;1750273;82;20834;-77
2021/06/07 02:09:40;;;;;;;10.05;7.45;;;;;;;10.04;84.40;98401.63;1750335;81;21056;-77
2021/06/07 02:12:08;;;;;;;10.50;7.87;;;;;;;10.05;83.34;98400.53;1750374;82;21135;-76
2021/06/07 02:14:34;;;;;;;9.45;7.65;;;;;;;10.00;83.14;98399.70;1750118;82;20911;-76
2021/06/07 02:17:00;;;;;;;11.05;7.45;;;;;;;9.95;82.91;98399.16;1750091;81;20962;-76
2021/06/07 02:19:26;;;;;;;13.00;7.72;;;;;;;9.88;82.64;98399.94;1750265;82;20910;-76
2021/06/07 02:21:52;;;;;;;11.03;8.48;;;;;;;9.74;83.63;98397.45;1750350;81;20854;-76
2021/06/07 02:24:18;;;;;;;10.45;7.25;;;;;;;9.74;83.27;98396.09;1750113;82;21086;-76
2021/06/07 02:26:44;;;;;;;9.53;7.30;;;;;;;9.74;81.75;98401.50;1750294;82;20925;-76
2021/06/07 02:29:13;;;;;;;9.23;7.28;;;;;;;9.51;83.37;98396.02;1750071;82;21406;-76
2021/06/07 02:31:40;;;;;;;10.80;7.72;;;;;;;9.39;83.88;98393.50;1750090;82;21001;-77
2021/06/07 02:34:08;;;;;;;10.35;7.05;;;;;;;9.41;82.87;98392.73;1750041;82;20965;-77
2021/06/07 02:36:36;;;;;;;8.47;7.53;;;;;;;9.39;83.22;98394.86;1750383;82;21220;-77
2021/06/07 02:39:07;;;;;;;10.75;7.70;;;;;;;9.40;83.54;98391.10;1750167;82;21323;-77
2021/06/07 02:41:34;;;;;;;7.95;6.03;;;;;;;9.40;84.07;98387.55;1750539;82;21291;-77
2021/06/07 02:44:00;;;;;;;11.80;7.37;;;;;;;9.42;83.86;98387.59;1750304;82;20955;-77
2021/06/07 02:46:26;;;;;;;8.75;7.17;;;;;;;9.43;84.02;98384.34;1750171;82;20855;-77
2021/06/07 02:48:51;;;;;;;9.00;6.65;;;;;;;9.46;83.30;98382.45;1750298;82;21325;-77
2021/06/07 02:51:17;;;;;;;11.05;7.72;;;;;;;9.50;82.86;98384.38;1750109;82;20866;-77
2021/06/07 02:53:44;;;;;;;9.05;6.78;;;;;;;9.48;83.40;98383.00;1722634;82;20961;-77
2021/06/07 02:56:10;;;;;;;10.80;6.83;;;;;;;9.47;84.11;98388.95;1749945;82;21010;-77
2021/06/07 02:58:42;;;;;;;9.98;7.00;;;;;;;9.46;84.14;98383.80;1750369;82;20911;-77
2021/06/07 03:01:10;;;;;;;10.68;7.70;;;;;;;9.46;83.42;98377.05;1750510;82;21119;-76
2021/06/07 03:03:36;;;;;;;9.60;7.03;;;;;;;9.41;84.06;98390.56;1750479;82;21364;-76
2021/06/07 03:06:03;;;;;;;11.75;8.23;;;;;;;9.37;83.73;98382.68;1750228;82;21305;-76
2021/06/07 03:08:30;;;;;;;11.00;8.65;;;;;;;9.36;83.62;98382.41;1750511;81;21029;-76
2021/06/07 03:11:00;;;;;;;8.95;6.97;;;;;;;9.33;83.23;98381.05;1722840;82;20961;-76
2021/06/07 03:13:26;;;;;;;8.98;6.67;;;;;;;9.32;82.65;98380.23;1750118;82;21999;-76
2021/06/07 03:15:55;;;;;;;10.40;8.35;;;;;;;9.28;82.43;98388.59;1750202;82;20958;-76
2021/06/07 03:18:21;;;;;;;12.30;6.70;;;;;;;9.24;83.93;98386.14;1750121;82;26272;-77
2021/06/07 03:20:47;;;;;;;8.53;7.00;;;;;;;9.27;83.87;98389.66;1750334;82;20926;-77
2021/06/07 03:23:17;;;;;;;15.80;8.30;;;;;;;9.35;82.95;98392.41;1722500;82;21012;-77
2021/06/07 03:25:44;;;;;;;9.20;6.62;;;;;;;9.45;82.20;98397.06;1722627;82;21462;-77
2021/06/07 03:28:11;;;;;;;24.40;7.50;;;;;;;9.48;83.58;98397.88;1750078;82;21006;-77
2021/06/07 03:30:37;;;;;;;11.18;7.45;;;;;;;9.57;83.54;98397.64;1750209;82;21418;-77
2021/06/07 03:33:05;;;;;;;9.88;7.40;;;;;;;9.72;83.36;98399.61;1750523;82;20914;-77
2021/06/07 03:35:33;;;;;;;11.63;8.28;;;;;;;9.83;82.13;98404.81;1750559;82;20958;-77
2021/06/07 03:37:59;;;;;;;15.18;9.63;;;;;;;9.95;82.54;98397.80;1750173;81;21300;-77
2021/06/07 03:40:28;;;;;;;11.55;7.42;;;;;;;10.05;82.51;98398.38;1750260;82;21024;-77
2021/06/07 03:42:54;;;;;;;10.23;8.00;;;;;;;10.15;81.95;98398.39;1750570;82;20938;-76
2021/06/07 03:45:20;;;;;;;11.93;8.43;;;;;;;10.17;81.63;98395.70;1750376;82;21028;-76
2021/06/07 03:47:46;;;;;;;10.65;7.10;;;;;;;10.21;81.37;98403.28;1750093;82;21552;-76
2021/06/07 03:50:14;;;;;;;10.08;7.92;;;;;;;10.28;80.90;98402.52;1750190;82;21149;-76
2021/06/07 03:52:41;;;;;;;18.10;7.47;;;;;;;10.32;81.10;98399.53;1722265;82;21025;-76
2021/06/07 03:55:10;;;;;;;14.90;8.10;;;;;;;10.39;80.70;98403.61;1750152;81;21009;-76
2021/06/07 03:57:36;;;;;;;11.73;7.30;;;;;;;10.46;80.79;98407.42;1750131;82;21414;-76
2021/06/07 04:00:05;;;;;;;8.55;7.17;;;;;;;10.52;80.32;98409.06;1750369;81;20870;-76
2021/06/07 04:02:31;;;;;;;8.00;6.62;;;;;;;10.62;80.42;98408.25;1749917;82;21103;-76
2021/06/07 04:04:58;;;;;;;9.60;6.83;;;;;;;10.76;79.71;98405.25;1750007;82;21016;-76
2021/06/07 04:07:23;;;;;;;11.22;7.65;;;;;;;10.85;79.73;98383.84;1750202;82;20874;-76
2021/06/07 04:09:49;;;;;;;12.53;8.13;;;;;;;10.97;79.83;98394.69;1750331;82;20918;-76
2021/06/07 04:12:15;;;;;;;11.57;8.23;;;;;;;11.07;79.59;98398.47;1750100;82;20866;-76
2021/06/07 04:14:41;;;;;;;13.60;9.00;;;;;;;11.20;78.89;98407.41;1750064;82;21287;-76
2021/06/07 04:17:08;;;;;;;15.35;7.87;;;;;;;11.17;79.06;98413.36;1750176;82;20969;-76
2021/06/07 04:19:34;;;;;;;9.73;7.17;;;;;;;11.13;79.01;98413.11;1750377;82;20930;-76
2021/06/07 04:22:00;;;;;;;11.85;7.17;;;;;;;11.20;78.63;98411.48;1750187;82;20834;-76
2021/06/07 04:24:26;;;;;;;10.18;7.62;;;;;;;11.22;78.62;98418.79;1749984;82;20953;-76
2021/06/07 04:26:52;;;;;;;9.15;7.42;;;;;;;11.36;78.88;98419.02;1750045;82;21135;-76
2021/06/07 04:29:18;;;;;;;9.70;7.65;;;;;;;11.52;78.73;98415.98;1750015;82;20974;-76
2021/06/07 04:31:44;;;;;;;14.28;8.73;;;;;;;11.66;78.39;98412.16;1750186;82;21033;-76
2021/06/07 04:34:10;;;;;;;13.32;7.83;;;;;;;11.81;78.41;98416.21;1750213;82;20918;-76
2021/06/07 04:36:36;;;;;;;8.95;8.00;;;;;;;11.97;77.88;98416.15;1750752;82;20961;-76
2021/06/07 04:39:05;;;;;;;9.73;8.13;;;;;;;12.09;77.34;98417.98;1750200;82;21243;-76
2021/06/07 04:41:31;;;;;;;10.08;7.90;;;;;;;12.17;77.01;98415.22;1722737;82;20974;-76
2021/06/07 04:43:59;;;;;;;10.70;8.45;;;;;;;12.33;76.83;98409.42;1722906;82;20998;-76
2021/06/07 04:46:25;;;;;;;16.48;8.75;;;;;;;12.55;76.67;98413.61;1750264;82;20907;-76
2021/06/07 04:48:51;;;;;;;11.08;7.95;;;;;;;12.75;76.41;98414.02;1750349;81;20962;-76
2021/06/07 04:51:17;;;;;;;15.98;7.95;;;;;;;12.92;75.83;98420.67;1750578;82;21266;-76
2021/06/07 04:53:43;;;;;;;21.00;7.65;;;;;;;13.12;75.58;98411.52;1750335;82;20891;-76
2021/06/07 04:56:09;;;;;;;9.03;7.87;;;;;;;13.26;75.35;98413.86;1740484;81;21439;-76
2021/06/07 04:58:35;;;;;;;11.33;7.85;;;;;;;13.35;75.04;98414.60;1736216;82;20846;-76
2021/06/07 05:01:05;;;;;;;10.50;7.53;;;;;;;13.44;74.77;98419.12;1736758;82;20981;-76
2021/06/07 05:03:31;;;;;;;9.70;8.05;;;;;;;13.55;74.47;98416.54;1715218;82;23069;-76
2021/06/07 05:05:58;;;;;;;9.15;7.85;;;;;;;13.56;73.83;98422.80;1736431;82;20997;-76
2021/06/07 05:08:25;;;;;;;14.53;9.30;;;;;;;13.69;74.06;98419.95;1736723;82;21336;-76
2021/06/07 05:10:51;;;;;;;16.25;8.50;;;;;;;13.76;73.92;98425.31;1736144;82;20978;-76
2021/06/07 05:13:18;;;;;;;8.78;7.05;;;;;;;13.98;73.53;98423.39;1736350;82;21002;-76
2021/06/07 05:15:43;;;;;;;11.60;7.08;;;;;;;14.08;72.96;98419.72;1736541;82;21090;-76
2021/06/07 05:18:10;;;;;;;16.27;8.00;;;;;;;14.14;73.24;98417.20;1736211;81;20859;-76
2021/06/07 05:20:36;;;;;;;13.68;7.75;;;;;;;14.31;73.43;98420.78;1736461;82;21050;-76
2021/06/07 05:23:03;;;;;;;11.97;8.75;;;;;;;14.61;73.57;98427.72;1736269;82;20874;-76
2021/06/07 05:25:31;;;;;;;13.62;7.80;;;;;;;14.80;72.76;98427.17;1736407;82;21034;-76
2021/06/07 05:27:58;;;;;;;14.28;8.55;;;;;;;14.97;72.18;98431.28;1736351;82;21419;-76
2021/06/07 05:30:25;;;;;;;10.28;7.70;;;;;;;15.12;71.53;98431.80;1736229;81;21041;-76
2021/06/07 05:32:51;;;;;;;10.30;7.75;;;;;;;15.33;70.93;98423.27;1736387;82;20966;-76
2021/06/07 05:35:21;;;;;;;10.30;7.87;;;;;;;15.48;70.88;98419.72;1736533;82;21018;-76
2021/06/07 05:37:46;;;;;;;8.33;7.20;;;;;;;15.67;70.17;98416.92;1736138;82;21062;-76
2021/06/07 05:40:13;;;;;;;9.70;8.40;;;;;;;15.88;69.75;98416.50;1736446;82;20938;-76
2021/06/07 05:42:39;;;;;;;12.60;9.18;;;;;;;15.93;69.58;98410.94;1736123;81;21415;-76
2021/06/07 05:45:07;;;;;;;11.65;8.28;;;;;;;16.12;69.33;98423.11;1736380;82;21086;-76
2021/06/07 05:47:33;;;;;;;8.73;7.10;;;;;;;16.18;68.69;98420.53;1736482;82;20951;-76
2021/06/07 05:50:00;;;;;;;14.05;8.08;;;;;;;16.27;68.77;98415.95;1736315;82;21006;-76
2021/06/07 05:52:26;;;;;;;11.80;6.60;;;;;;;16.39;68.81;98421.69;1736339;81;21100;-76
2021/06/07 05:54:52;;;;;;;8.80;6.53;;;;;;;16.49;68.70;98418.75;1736601;82;20969;-76
2021/06/07 05:57:18;;;;;;;7.45;6.50;;;;;;;16.62;68.00;98416.51;1750316;82;21523;-76
2021/06/07 05:59:44;;;;;;;12.50;7.25;;;;;;;16.93;67.62;98418.55;1750076;82;20834;-76
2021/06/07 06:02:12;;;;;;;9.98;6.92;;;;;;;16.99;67.41;98414.55;1750721;81;21033;-76
2021/06/07 06:04:40;;;;;;;9.15;6.62;;;;;;;17.22;66.91;98412.61;1750331;81;21282;-77
2021/06/07 06:07:06;;;;;;;8.63;6.57;;;;;;;17.45;66.10;98417.50;1750441;82;20887;-76
2021/06/07 06:09:32;;;;;;;7.45;6.70;;;;;;;17.69;65.25;98420.67;1750248;81;20915;-76
2021/06/07 06:11:58;;;;;;;10.53;6.45;;;;;;;17.91;64.80;98418.99;1750596;82;20958;-76
2021/06/07 06:14:25;;;;;;;8.83;6.22;;;;;;;18.16;64.53;98411.96;1750317;82;20877;-75
2021/06/07 06:16:51;;;;;;;7.50;5.58;;;;;;;18.38;64.04;98407.73;1722967;82;21301;-76
2021/06/07 06:19:17;;;;;;;7.47;6.12;;;;;;;18.57;62.11;98419.77;1750258;81;21045;-76
2021/06/07 06:21:43;;;;;;;8.83;5.33;;;;;;;18.67;62.53;98418.66;1750436;82;20862;-76
2021/06/07 06:24:11;;;;;;;8.33;5.87;;;;;;;18.73;59.94;98415.44;1750184;82;20938;-76
2021/06/07 06:26:38;;;;;;;78.35;13.48;;;;;;;18.61;60.94;98421.52;1750384;81;21021;-76
2021/06/07 06:29:12;;;;;;;7.47;5.97;;;;;;;18.72;59.70;98412.45;1750096;82;21147;-76
2021/06/07 06:31:38;;;;;;;6.35;5.60;;;;;;;18.68;60.57;98409.30;1750240;81;21017;-76
2021/06/07 06:34:04;;;;;;;8.70;6.45;;;;;;;18.92;61.23;98409.61;1750227;82;20968;-76
2021/06/07 06:36:30;;;;;;;7.72;6.00;;;;;;;19.18;60.64;98408.19;1722810;82;21064;-76
2021/06/07 06:38:57;;;;;;;9.98;5.97;;;;;;;19.42;59.55;98411.77;1750138;82;20898;-76
2021/06/07 06:41:23;;;;;;;12.80;6.90;;;;;;;19.56;58.76;98408.25;1750399;81;22039;-76
2021/06/07 06:43:49;;;;;;;11.90;6.67;;;;;;;19.79;58.80;98409.39;1749935;82;20978;-75
2021/06/07 06:46:15;;;;;;;8.00;6.05;;;;;;;20.00;59.04;98401.44;1750493;82;20909;-76
2021/06/07 06:48:41;;;;;;;11.88;6.80;;;;;;;20.22;58.71;98412.70;1750004;82;20962;-76
2021/06/07 06:51:07;;;;;;;10.45;6.15;;;;;;;20.33;55.74;98412.31;1750447;82;21505;-76
2021/06/07 06:53:33;;;;;;;9.40;6.92;;;;;;;20.43;56.80;98414.69;1750363;82;21669;-76
2021/06/07 06:55:59;;;;;;;17.70;6.50;;;;;;;20.58;56.96;98417.42;1750215;81;20929;-75
2021/06/07 06:58:25;;;;;;;10.25;5.85;;;;;;;20.83;56.77;98420.53;1750132;82;20945;-76
2021/06/07 07:00:51;;;;;;;9.80;6.22;;;;;;;21.05;55.11;98423.52;1750295;81;21020;-76
2021/06/07 07:03:19;;;;;;;9.90;6.97;;;;;;;21.39;54.17;98420.44;1750207;82;21068;-76
2021/06/07 07:05:45;;;;;;;11.08;6.35;;;;;;;21.50;54.32;98419.98;1750528;82;21979;-76
2021/06/07 07:08:12;;;;;;;9.78;6.75;;;;;;;21.49;52.79;98416.43;1722360;82;20903;-76
2021/06/07 07:10:41;;;;;;;11.48;5.97;;;;;;;21.49;52.44;98417.80;1750393;81;21493;-76
2021/06/07 07:13:07;;;;;;;12.47;6.33;;;;;;;21.72;52.63;98419.58;1750070;81;21063;-76
2021/06/07 07:15:33;;;;;;;6.97;5.47;;;;;;;21.76;52.26;98419.68;1750390;82;20949;-76
2021/06/07 07:17:59;;;;;;;8.88;5.35;;;;;;;21.89;52.37;98419.93;1722582;82;20983;-76
2021/06/07 07:20:25;;;;;;;8.85;5.80;;;;;;;22.21;52.08;98417.63;1750296;82;21040;-76
2021/06/07 07:22:51;;;;;;;11.78;5.85;;;;;;;22.35;51.37;98422.80;1750317;82;21323;-76
2021/06/07 07:25:17;;;;;;;14.47;6.37;;;;;;;22.46;49.53;98421.73;1750419;82;20935;-76
2021/06/07 07:27:43;;;;;;;9.38;5.72;;;;;;;22.77;50.50;98419.13;1750166;82;20982;-76
2021/06/07 07:30:13;;;;;;;17.37;5.70;;;;;;;23.00;50.41;98424.96;1750367;82;21193;-76
2021/06/07 07:32:41;;;;;;;10.38;6.10;;;;;;;23.25;49.39;98422.09;1750085;82;21001;-77
2021/06/07 07:35:07;;;;;;;6.75;5.00;;;;;;;23.81;48.43;98420.60;1750227;82;21000;-77
2021/06/07 07:37:34;;;;;;;12.85;5.47;;;;;;;24.30;45.35;98422.97;1750332;82;20907;-77
2021/06/07 07:40:01;;;;;;;10.45;5.33;;;;;;;24.88;44.73;98419.73;1750302;82;21032;-77
2021/06/07 07:42:27;;;;;;;6.75;4.67;;;;;;;25.30;45.16;98419.00;1750179;81;21045;-77
2021/06/07 07:44:53;;;;;;;6.80;4.53;;;;;;;25.86;43.07;98419.22;1750298;82;21064;-77
2021/06/07 07:47:20;;;;;;;9.35;4.90;;;;;;;26.41;44.64;98418.34;1750435;82;20918;-77
2021/06/07 07:49:46;;;;;;;6.85;5.05;;;;;;;26.13;40.67;98420.64;1750301;82;21613;-77
2021/06/07 07:52:13;;;;;;;7.58;4.95;;;;;;;26.31;40.06;98418.92;1750331;82;21490;-77
2021/06/07 07:54:39;;;;;;;13.05;7.05;;;;;;;25.96;40.75;98420.56;1750014;82;21129;-77
2021/06/07 07:57:06;;;;;;;9.83;5.03;;;;;;;25.77;39.87;98411.73;1740372;81;20927;-77
2021/06/07 07:59:33;;;;;;;5.75;5.05;;;;;;;26.29;41.33;98408.79;1736136;82;20954;-77
2021/06/07 08:02:00;;;;;;;11.50;5.10;;;;;;;26.24;39.72;98420.23;1736193;82;21014;-77
2021/06/07 08:04:26;;;;;;;11.00;6.60;;;;;;;25.82;41.12;98421.74;1736012;82;20983;-77
2021/06/07 08:06:52;;;;;;;10.13;6.03;;;;;;;25.93;41.85;98413.00;1736235;82;21864;-77
2021/06/07 08:09:18;;;;;;;7.42;4.53;;;;;;;26.02;41.76;98419.67;1735874;82;21006;-77
2021/06/07 08:11:44;;;;;;;7.15;4.10;;;;;;;26.48;41.41;98416.23;1715422;82;20929;-77
2021/06/07 08:14:10;;;;;;;9.93;5.12;;;;;;;27.09;40.79;98422.03;1736160;82;20985;-77
2021/06/07 08:16:36;;;;;;;10.75;4.37;;;;;;;27.41;37.11;98422.37;1736402;82;21489;-77
2021/06/07 08:19:02;;;;;;;15.38;5.17;;;;;;;27.68;36.95;98420.87;1736098;82;21826;-77
2021/06/07 08:21:28;;;;;;;10.38;4.25;;;;;;;28.11;37.93;98423.42;1736224;82;21434;-77
2021/06/07 08:23:54;;;;;;;6.85;4.05;;;;;;;27.89;34.38;98421.07;1736453;82;21440;-77
2021/06/07 08:26:20;;;;;;;8.78;3.87;;;;;;;28.01;33.83;98419.37;1736309;82;21476;-77
2021/06/07 08:28:46;;;;;;;5.83;3.80;;;;;;;28.02;33.88;98429.31;1736039;81;20967;-77
2021/06/07 08:31:12;;;;;;;5.85;3.55;;;;;;;28.69;35.05;98419.84;1715418;82;21129;-77
2021/06/07 08:33:38;;;;;;;6.22;3.45;;;;;;;28.77;33.23;98420.09;1735985;82;20847;-77
2021/06/07 08:36:05;;;;;;;11.48;4.05;;;;;;;29.40;32.61;98417.38;1736286;82;21045;-77
2021/06/07 08:38:31;;;;;;;5.75;3.58;;;;;;;30.10;34.02;98419.28;1736062;82;20998;-77
2021/06/07 08:40:57;;;;;;;6.08;2.92;;;;;;;30.71;32.62;98415.00;1736396;82;21415;-77
2021/06/07 08:43:23;;;;;;;8.55;5.47;;;;;;;31.32;30.64;98414.16;1736367;82;21786;-77
2021/06/07 08:45:50;;;;;;;5.87;3.85;;;;;;;31.92;28.82;98409.56;1736304;82;21442;-77
2021/06/07 08:48:16;;;;;;;7.92;4.08;;;;;;;31.92;28.82;98409.56;1715307;82;21360;-77
2021/06/07 08:50:42;;;;;;;6.95;3.45;;;;;;;32.54;29.82;98410.60;1736147;82;21119;-77
2021/06/07 08:53:08;;;;;;;5.47;3.10;;;;;;;31.69;26.66;98407.30;1736131;82;21021;-77
2021/06/07 08:55:36;;;;;;;12.37;5.20;;;;;;;31.98;28.01;98405.72;1736223;82;21859;-77
2021/06/07 08:58:04;;;;;;;5.97;2.80;;;;;;;32.54;28.09;98406.40;1717230;82;20943;-78
2021/06/07 09:00:38;;;;;;;3.30;2.70;;;;;;;31.64;24.31;98405.56;1746555;82;20978;-78
2021/06/07 09:03:11;;;;;;;4.92;2.67;;;;;;;31.48;25.33;98409.47;1717129;82;20926;-77
2021/06/07 09:05:39;;;;;;;4.22;2.77;;;;;;;31.82;23.49;98405.45;1746567;81;20997;-77
2021/06/07 09:08:14;;;;;;;7.95;2.70;;;;;;;32.33;25.38;98400.42;1746282;82;21158;-77
2021/06/07 09:10:51;;;;;;;5.45;2.40;;;;;;;33.31;24.90;98393.23;1745638;82;20971;-78
2021/06/07 09:13:19;;;;;;;4.20;2.17;;;;;;;33.57;22.43;98399.50;1746646;82;21060;-78
2021/06/07 09:15:51;;;;;;;6.75;2.45;;;;;;;31.88;21.62;98402.41;1746502;82;20962;-78
2021/06/07 09:18:33;;;;;;;4.90;2.22;;;;;;;32.48;21.46;98403.27;1746388;82;21513;-78
2021/06/07 09:21:25;;;;;;;3.72;1.98;;;;;;;31.44;22.34;98408.87;1746742;82;21193;-77
2021/06/07 09:23:58;;;;;;;3.35;2.12;;;;;;;31.16;22.33;98405.61;1746500;82;20957;-77
2021/06/07 09:26:39;;;;;;;6.78;2.02;;;;;;;31.27;21.08;98409.77;1745861;82;21084;-77
2021/06/07 09:29:21;;;;;;;4.62;3.05;;;;;;;31.97;21.25;98399.33;1746470;81;20915;-76
2021/06/07 09:31:53;;;;;;;6.87;2.58;;;;;;;33.00;21.54;98399.49;1721220;82;21064;-77
2021/06/07 09:34:31;;;;;;;3.58;2.35;;;;;;;34.20;20.10;98397.52;1746394;81;21112;-78
2021/06/07 09:37:05;;;;;;;;;;;;;;;34.69;18.92;98396.40;1749395;82;21017;-76
2021/06/07 09:39:31;;;;;;;5.75;2.52;;;;;;;34.01;17.32;98396.82;1745485;82;20163;-78
2021/06/07 09:42:10;;;;;;;3.83;2.45;;;;;;;35.57;18.33;98394.37;1746855;82;21001;-77
2021/06/07 09:44:46;;;;;;;5.10;2.30;;;;;;;34.41;16.34;98396.34;1717572;82;21350;-78
2021/06/07 09:47:27;;;;;;;5.87;2.15;;;;;;;35.96;17.20;98392.63;1746648;82;21490;-78
2021/06/07 09:49:56;;;;;;;4.97;2.20;;;;;;;36.53;15.64;98387.73;1746391;82;21447;-77
2021/06/07 09:52:43;;;;;;;3.37;2.02;;;;;;;36.62;16.12;98376.58;1746805;82;20986;-77
2021/06/07 09:55:17;;;;;;;3.20;1.85;;;;;;;37.05;15.07;98380.23;1746015;82;21076;-76
2021/06/07 09:57:46;;;;;;;;;;;;;;;37.35;14.64;98382.56;1751813;81;20942;-77
2021/06/07 10:00:16;;;;;;;2.52;1.80;;;;;;;37.26;13.56;98378.97;1750940;82;21756;-78
2021/06/07 10:02:42;;;;;;;3.85;2.00;;;;;;;37.48;14.98;98372.04;1719479;82;21395;-78
2021/06/07 10:05:08;;;;;;;4.60;2.10;;;;;;;37.46;13.59;98375.95;1750369;82;21122;-78
2021/06/07 10:07:34;;;;;;;2.40;1.98;;;;;;;36.37;14.12;98380.09;1750367;82;21069;-78
2021/06/07 10:10:18;;;;;;;6.22;1.92;;;;;;;36.10;13.30;98385.23;1750299;82;20980;-78
2021/06/07 10:12:45;;;;;;;5.25;2.10;;;;;;;36.00;14.01;98378.64;1750298;81;21104;-77
2021/06/07 10:15:15;;;;;;;4.00;2.92;;;;;;;37.63;14.17;98371.59;1722960;82;20982;-77
2021/06/07 10:17:41;;;;;;;2.52;1.52;;;;;;;38.01;13.91;98376.58;1750321;82;20970;-77
2021/06/07 10:22:39;;;;;;;2.47;2.00;;;;;;;38.14;12.76;98377.98;1722870;82;21017;-77
2021/06/07 10:25:08;;;;;;;4.08;2.40;;;;;;;38.61;13.60;98372.89;1750347;82;21130;-77
2021/06/07 10:27:35;;;;;;;3.35;2.22;;;;;;;38.00;13.31;98370.77;1750208;82;21037;-77
2021/06/07 10:30:03;;;;;;;3.52;2.08;;;;;;;37.24;13.69;98372.95;1750108;82;21097;-77
2021/06/07 10:32:29;;;;;;;4.00;2.12;;;;;;;37.92;13.41;98360.14;1750311;82;21018;-77
2021/06/07 10:35:02;;;;;;;3.42;2.37;;;;;;;38.45;13.40;98354.05;1750109;81;21323;-78
2021/06/07 10:37:28;;;;;;;7.78;2.20;;;;;;;39.11;13.23;98357.67;1750277;82;21166;-77
2021/06/07 10:40:21;;;;;;;2.93;2.30;;;;;;;38.51;13.12;98367.79;1750282;82;20947;-76
2021/06/07 10:42:58;;;;;;;6.10;2.58;;;;;;;39.12;12.90;98357.05;1745640;82;21097;-78
2021/06/07 10:45:27;;;;;;;5.00;1.92;;;;;;;37.45;13.45;98370.13;1750302;82;21067;-78
2021/06/07 10:47:53;;;;;;;3.17;2.10;;;;;;;37.25;13.71;98364.65;1750609;82;20958;-78
2021/06/07 10:50:23;;;;;;;2.08;1.70;;;;;;;37.51;12.40;98358.41;1722820;82;21461;-78
2021/06/07 10:52:56;;;;;;;2.67;1.90;;;;;;;37.83;13.14;98350.32;1748876;82;21513;-78
2021/06/07 10:55:29;;;;;;;2.98;1.98;;;;;;;37.25;13.11;98360.41;1750556;81;21366;-78
2021/06/07 10:58:00;;;;;;;2.62;1.70;;;;;;;37.85;13.36;98353.31;1749624;81;20914;-77
2021/06/07 11:00:30;;;;;;;3.00;2.25;;;;;;;38.94;13.04;98354.27;1748716;82;20938;-77
2021/06/07 11:03:02;;;;;;;4.37;1.85;;;;;;;38.69;12.49;98357.25;1750235;82;21025;-77
2021/06/07 11:05:36;;;;;;;2.33;1.90;;;;;;;39.32;12.57;98352.47;1750365;82;21010;-78
2021/06/07 11:08:18;;;;;;;2.12;1.62;;;;;;;39.99;11.94;98352.51;1749055;82;20973;-77
2021/06/07 11:10:47;;;;;;;2.95;1.77;;;;;;;39.73;12.17;98349.15;1750382;82;20986;-77
2021/06/07 11:13:19;;;;;;;3.35;2.08;;;;;;;37.70;11.83;98347.34;1748003;82;21041;-77
2021/06/07 11:15:56;;;;;;;3.72;1.90;;;;;;;38.08;12.18;98351.52;1750258;82;21832;-78
2021/06/07 11:18:32;;;;;;;2.90;1.62;;;;;;;37.80;12.28;98348.42;1750209;82;20954;-77
2021/06/07 11:21:11;;;;;;;3.05;1.70;;;;;;;38.29;12.65;98340.11;1750615;82;20950;-77
2021/06/07 11:23:42;;;;;;;2.75;1.60;;;;;;;38.94;12.33;98337.91;1750316;82;21045;-76
2021/06/07 11:26:11;;;;;;;4.97;1.90;;;;;;;38.62;12.51;98339.09;1722585;82;21029;-77
2021/06/07 11:29:06;;;;;;;4.15;1.90;;;;;;;39.59;12.13;98341.25;1750162;82;21106;-77
2021/06/07 11:31:37;;;;;;;4.17;2.10;;;;;;;38.07;12.36;98330.14;1750403;81;20966;-77
2021/06/07 11:34:09;;;;;;;2.47;2.05;;;;;;;36.21;13.64;98342.02;1750275;82;21379;-77
2021/06/07 11:36:56;;;;;;;3.10;1.98;;;;;;;37.33;13.37;98336.21;1750435;82;20944;-77
2021/06/07 11:39:25;;;;;;;3.12;2.22;;;;;;;36.19;14.10;98338.86;1750214;82;21458;-78